sensor_id;sensor_type;location;lat;lon;timestamp;pressure;altitude;pressure_sealevel;temperature;humidity
21361;BME280;10839;43.206;23.550;2023-11-18T00:01:25;96482.47;;;8.79;100.00
21361;BME280;10839;43.206;23.550;2023-11-18T00:03:51;96498.03;;;8.56;100.00
21361;BME280;10839;43.206;23.550;2023-11-18T00:06:16;96492.22;;;8.46;100.00
21361;BME280;10839;43.206;23.550;2023-11-18T00:08:42;96490.75;;;8.84;100.00
21361;BME280;10839;43.206;23.550;2023-11-18T00:11:09;96481.25;;;8.75;100.00
21361;BME280;10839;43.206;23.550;2023-11-18T00:13:37;96488.50;;;8.47;100.00
21361;BME280;10839;43.206;23.550;2023-11-18T00:16:09;96474.38;;;8.32;100.00
21361;BME280;10839;43.206;23.550;2023-11-18T00:18:41;96478.13;;;8.71;100.00
21361;BME280;10839;43.206;23.550;2023-11-18T00:21:07;96473.34;;;8.67;100.00
21361;BME280;10839;43.206;23.550;2023-11-18T00:23:34;96458.78;;;8.42;100.00
21361;BME280;10839;43.206;23.550;2023-11-18T00:26:00;96452.59;;;8.35;100.00
21361;BME280;10839;43.206;23.550;2023-11-18T00:28:26;96454.31;;;8.55;100.00
21361;BME280;10839;43.206;23.550;2023-11-18T00:30:53;96442.69;;;8.42;100.00
21361;BME280;10839;43.206;23.550;2023-11-18T00:33:18;96443.34;;;8.10;100.00
21361;BME280;10839;43.206;23.550;2023-11-18T00:35:44;96453.28;;;8.22;100.00
21361;BME280;10839;43.206;23.550;2023-11-18T00:38:11;96439.06;;;8.56;100.00
21361;BME280;10839;43.206;23.550;2023-11-18T00:40:37;96442.56;;;8.50;100.00
21361;BME280;10839;43.206;23.550;2023-11-18T00:43:03;96444.09;;;8.04;100.00
21361;BME280;10839;43.206;23.550;2023-11-18T00:45:29;96432.69;;;8.23;100.00
21361;BME280;10839;43.206;23.550;2023-11-18T00:47:57;96437.53;;;8.40;100.00
21361;BME280;10839;43.206;23.550;2023-11-18T00:50:23;96439.00;;;8.43;100.00
21361;BME280;10839;43.206;23.550;2023-11-18T00:52:49;96421.81;;;7.97;100.00
21361;BME280;10839;43.206;23.550;2023-11-18T00:55:15;96426.78;;;8.00;100.00
21361;BME280;10839;43.206;23.550;2023-11-18T00:57:46;96400.53;;;8.23;100.00
21361;BME280;10839;43.206;23.550;2023-11-18T01:00:13;96403.53;;;8.41;100.00
21361;BME280;10839;43.206;23.550;2023-11-18T01:02:40;96402.91;;;8.05;100.00
21361;BME280;10839;43.206;23.550;2023-11-18T01:05:06;96422.59;;;7.91;100.00
21361;BME280;10839;43.206;23.550;2023-11-18T01:07:40;96444.22;;;8.17;100.00
21361;BME280;10839;43.206;23.550;2023-11-18T01:10:07;96449.44;;;8.25;100.00
21361;BME280;10839;43.206;23.550;2023-11-18T01:12:33;96451.91;;;7.99;100.00
21361;BME280;10839;43.206;23.550;2023-11-18T01:14:59;96454.09;;;7.89;100.00
21361;BME280;10839;43.206;23.550;2023-11-18T01:17:25;96473.44;;;8.12;100.00
21361;BME280;10839;43.206;23.550;2023-11-18T01:19:51;96471.06;;;8.23;100.00
21361;BME280;10839;43.206;23.550;2023-11-18T01:22:17;96465.94;;;8.01;100.00
21361;BME280;10839;43.206;23.550;2023-11-18T01:24:44;96463.47;;;7.71;100.00
21361;BME280;10839;43.206;23.550;2023-11-18T01:27:11;96463.72;;;8.11;100.00
21361;BME280;10839;43.206;23.550;2023-11-18T01:29:39;96471.91;;;8.30;100.00
21361;BME280;10839;43.206;23.550;2023-11-18T01:32:06;96481.59;;;8.04;100.00
21361;BME280;10839;43.206;23.550;2023-11-18T01:34:38;96468.66;;;7.79;100.00
21361;BME280;10839;43.206;23.550;2023-11-18T01:37:09;96470.88;;;8.04;100.00
21361;BME280;10839;43.206;23.550;2023-11-18T01:39:35;96471.16;;;8.15;100.00
21361;BME280;10839;43.206;23.550;2023-11-18T01:42:01;96477.88;;;7.98;100.00
21361;BME280;10839;43.206;23.550;2023-11-18T01:44:29;96478.97;;;7.82;100.00
21361;BME280;10839;43.206;23.550;2023-11-18T01:46:56;96479.97;;;8.03;100.00
21361;BME280;10839;43.206;23.550;2023-11-18T01:49:23;96471.03;;;7.96;100.00
21361;BME280;10839;43.206;23.550;2023-11-18T01:51:50;96483.84;;;7.72;100.00
21361;BME280;10839;43.206;23.550;2023-11-18T01:54:21;96478.50;;;7.72;100.00
21361;BME280;10839;43.206;23.550;2023-11-18T01:56:49;96489.88;;;8.09;100.00
21361;BME280;10839;43.206;23.550;2023-11-18T01:59:16;96485.47;;;7.73;100.00
21361;BME280;10839;43.206;23.550;2023-11-18T02:01:52;96491.50;;;7.54;100.00
21361;BME280;10839;43.206;23.550;2023-11-18T02:04:20;96494.69;;;7.64;100.00
21361;BME280;10839;43.206;23.550;2023-11-18T02:06:48;96493.50;;;7.95;100.00
21361;BME280;10839;43.206;23.550;2023-11-18T02:09:15;96494.44;;;7.59;100.00
21361;BME280;10839;43.206;23.550;2023-11-18T02:14:26;96492.47;;;7.68;100.00
21361;BME280;10839;43.206;23.550;2023-11-18T02:16:53;96486.47;;;7.94;100.00
21361;BME280;10839;43.206;23.550;2023-11-18T02:19:24;96483.63;;;7.46;100.00
21361;BME280;10839;43.206;23.550;2023-11-18T02:21:52;96476.28;;;7.13;100.00
21361;BME280;10839;43.206;23.550;2023-11-18T02:24:30;96474.22;;;7.57;100.00
21361;BME280;10839;43.206;23.550;2023-11-18T02:27:00;96465.09;;;7.45;100.00
21361;BME280;10839;43.206;23.550;2023-11-18T02:29:28;96466.50;;;7.20;100.00
21361;BME280;10839;43.206;23.550;2023-11-18T02:32:00;96464.13;;;7.31;100.00
21361;BME280;10839;43.206;23.550;2023-11-18T02:34:30;96468.38;;;7.68;100.00
21361;BME280;10839;43.206;23.550;2023-11-18T02:36:58;96476.09;;;7.35;100.00
21361;BME280;10839;43.206;23.550;2023-11-18T02:39:43;96479.78;;;7.34;100.00
21361;BME280;10839;43.206;23.550;2023-11-18T02:42:12;96482.09;;;7.58;96.89
21361;BME280;10839;43.206;23.550;2023-11-18T02:44:38;96481.44;;;7.35;95.34
21361;BME280;10839;43.206;23.550;2023-11-18T02:47:05;96489.72;;;6.98;96.57
21361;BME280;10839;43.206;23.550;2023-11-18T02:49:32;96478.41;;;7.38;95.32
21361;BME280;10839;43.206;23.550;2023-11-18T02:51:59;96483.94;;;7.58;93.36
21361;BME280;10839;43.206;23.550;2023-11-18T02:54:24;96483.22;;;7.49;92.83
21361;BME280;10839;43.206;23.550;2023-11-18T02:56:51;96477.75;;;7.36;95.24
21361;BME280;10839;43.206;23.550;2023-11-18T02:59:17;96482.75;;;7.67;91.80
21361;BME280;10839;43.206;23.550;2023-11-18T03:01:43;96486.94;;;7.48;92.23
21361;BME280;10839;43.206;23.550;2023-11-18T03:04:10;96493.31;;;7.05;90.88
21361;BME280;10839;43.206;23.550;2023-11-18T03:06:36;96470.63;;;7.43;90.69
21361;BME280;10839;43.206;23.550;2023-11-18T03:09:03;96480.47;;;7.64;90.26
21361;BME280;10839;43.206;23.550;2023-11-18T03:11:33;96480.88;;;7.19;87.68
21361;BME280;10839;43.206;23.550;2023-11-18T03:13:59;96474.84;;;7.31;86.26
21361;BME280;10839;43.206;23.550;2023-11-18T03:16:25;96466.03;;;7.58;85.40
21361;BME280;10839;43.206;23.550;2023-11-18T03:18:51;96468.72;;;7.37;84.56
21361;BME280;10839;43.206;23.550;2023-11-18T03:21:17;96470.34;;;7.17;83.83
21361;BME280;10839;43.206;23.550;2023-11-18T03:23:45;96465.63;;;7.40;83.13
21361;BME280;10839;43.206;23.550;2023-11-18T03:26:11;96455.81;;;7.68;81.17
21361;BME280;10839;43.206;23.550;2023-11-18T03:28:37;96464.94;;;7.80;80.97
21361;BME280;10839;43.206;23.550;2023-11-18T03:31:06;96450.16;;;7.36;84.37
21361;BME280;10839;43.206;23.550;2023-11-18T03:33:32;96453.50;;;7.65;84.72
21361;BME280;10839;43.206;23.550;2023-11-18T03:35:58;96467.91;;;7.92;82.89
21361;BME280;10839;43.206;23.550;2023-11-18T03:38:24;96455.19;;;7.66;84.34
21361;BME280;10839;43.206;23.550;2023-11-18T03:40:50;96453.31;;;7.18;87.15
21361;BME280;10839;43.206;23.550;2023-11-18T03:43:18;96449.13;;;7.58;84.46
21361;BME280;10839;43.206;23.550;2023-11-18T03:45:45;96450.66;;;7.46;83.81
21361;BME280;10839;43.206;23.550;2023-11-18T03:48:11;96466.28;;;7.00;85.88
21361;BME280;10839;43.206;23.550;2023-11-18T03:50:40;96475.34;;;7.41;84.96
21361;BME280;10839;43.206;23.550;2023-11-18T03:53:06;96483.03;;;7.51;83.92
21361;BME280;10839;43.206;23.550;2023-11-18T03:55:32;96481.31;;;7.22;85.19
21361;BME280;10839;43.206;23.550;2023-11-18T03:57:59;96488.81;;;6.91;87.89
21361;BME280;10839;43.206;23.550;2023-11-18T04:00:25;96481.44;;;7.35;85.48
21361;BME280;10839;43.206;23.550;2023-11-18T04:02:56;96474.44;;;7.34;84.71
21361;BME280;10839;43.206;23.550;2023-11-18T04:05:24;96467.81;;;7.09;85.73
21361;BME280;10839;43.206;23.550;2023-11-18T04:07:51;96470.81;;;7.42;85.74
21361;BME280;10839;43.206;23.550;2023-11-18T04:10:18;96460.69;;;7.58;81.76
21361;BME280;10839;43.206;23.550;2023-11-18T04:12:45;96479.16;;;7.53;80.81
21361;BME280;10839;43.206;23.550;2023-11-18T04:15:12;96463.63;;;7.21;82.61
21361;BME280;10839;43.206;23.550;2023-11-18T04:17:38;96474.72;;;7.67;80.61
21361;BME280;10839;43.206;23.550;2023-11-18T04:20:04;96471.50;;;7.71;80.97
21361;BME280;10839;43.206;23.550;2023-11-18T04:22:40;96476.59;;;7.24;81.91
21361;BME280;10839;43.206;23.550;2023-11-18T04:25:11;96465.66;;;6.98;84.78
21361;BME280;10839;43.206;23.550;2023-11-18T04:27:39;96472.03;;;7.39;84.57
21361;BME280;10839;43.206;23.550;2023-11-18T04:30:06;96467.44;;;7.33;83.62
21361;BME280;10839;43.206;23.550;2023-11-18T04:32:34;96473.59;;;6.92;85.80
21361;BME280;10839;43.206;23.550;2023-11-18T04:35:00;96471.13;;;7.32;84.63
21361;BME280;10839;43.206;23.550;2023-11-18T04:37:34;96477.50;;;7.52;84.35
21361;BME280;10839;43.206;23.550;2023-11-18T04:40:00;96474.19;;;7.08;86.07
21361;BME280;10839;43.206;23.550;2023-11-18T04:42:26;96466.44;;;7.13;87.20
21361;BME280;10839;43.206;23.550;2023-11-18T04:44:56;96465.84;;;7.39;85.97
21361;BME280;10839;43.206;23.550;2023-11-18T04:47:22;96470.22;;;7.25;86.57
21361;BME280;10839;43.206;23.550;2023-11-18T04:49:48;96473.09;;;7.03;87.56
21361;BME280;10839;43.206;23.550;2023-11-18T04:52:13;96468.59;;;7.24;86.29
21361;BME280;10839;43.206;23.550;2023-11-18T04:54:39;96458.78;;;7.10;86.13
21361;BME280;10839;43.206;23.550;2023-11-18T04:57:05;96479.03;;;7.19;86.68
21361;BME280;10839;43.206;23.550;2023-11-18T04:59:35;96473.81;;;7.53;85.11
21361;BME280;10839;43.206;23.550;2023-11-18T05:02:01;96483.22;;;7.49;84.72
21361;BME280;10839;43.206;23.550;2023-11-18T05:04:28;96485.09;;;6.92;86.44
21361;BME280;10839;43.206;23.550;2023-11-18T05:06:54;96492.28;;;7.27;85.03
21361;BME280;10839;43.206;23.550;2023-11-18T05:09:19;96490.22;;;7.50;83.29
21361;BME280;10839;43.206;23.550;2023-11-18T05:11:46;96489.59;;;7.27;84.65
21361;BME280;10839;43.206;23.550;2023-11-18T05:14:11;96487.44;;;7.37;84.04
21361;BME280;10839;43.206;23.550;2023-11-18T05:16:37;96486.09;;;7.48;81.98
21361;BME280;10839;43.206;23.550;2023-11-18T05:19:04;96495.53;;;7.44;81.63
21361;BME280;10839;43.206;23.550;2023-11-18T05:21:31;96498.06;;;7.10;81.94
21361;BME280;10839;43.206;23.550;2023-11-18T05:23:56;96474.56;;;7.47;79.56
21361;BME280;10839;43.206;23.550;2023-11-18T05:26:22;96493.41;;;7.82;78.18
21361;BME280;10839;43.206;23.550;2023-11-18T05:28:48;96495.84;;;7.34;78.62
21361;BME280;10839;43.206;23.550;2023-11-18T05:31:16;96496.50;;;7.36;77.05
21361;BME280;10839;43.206;23.550;2023-11-18T05:33:43;96498.47;;;7.70;76.04
21361;BME280;10839;43.206;23.550;2023-11-18T05:36:09;96489.34;;;7.64;75.38
21361;BME280;10839;43.206;23.550;2023-11-18T05:38:36;96482.59;;;7.26;75.22
21361;BME280;10839;43.206;23.550;2023-11-18T05:41:03;96478.03;;;7.69;73.56
21361;BME280;10839;43.206;23.550;2023-11-18T05:43:32;96488.41;;;7.78;71.83
21361;BME280;10839;43.206;23.550;2023-11-18T05:46:06;96480.19;;;7.31;73.19
21361;BME280;10839;43.206;23.550;2023-11-18T05:48:48;96488.41;;;7.51;72.24
21361;BME280;10839;43.206;23.550;2023-11-18T05:51:19;96493.31;;;7.68;71.31
21361;BME280;10839;43.206;23.550;2023-11-18T05:53:46;96492.28;;;7.27;73.76
21361;BME280;10839;43.206;23.550;2023-11-18T05:56:16;96499.41;;;7.20;74.10
21361;BME280;10839;43.206;23.550;2023-11-18T05:58:45;96495.59;;;7.50;71.90
21361;BME280;10839;43.206;23.550;2023-11-18T06:01:12;96512.41;;;7.44;72.88
21361;BME280;10839;43.206;23.550;2023-11-18T06:03:39;96500.69;;;7.03;75.16
21361;BME280;10839;43.206;23.550;2023-11-18T06:06:07;96500.81;;;7.37;74.07
21361;BME280;10839;43.206;23.550;2023-11-18T06:08:38;96494.84;;;7.56;71.93
21361;BME280;10839;43.206;23.550;2023-11-18T06:11:14;96518.38;;;7.25;73.45
21361;BME280;10839;43.206;23.550;2023-11-18T06:13:50;96517.44;;;7.12;75.40
21361;BME280;10839;43.206;23.550;2023-11-18T06:16:21;96507.81;;;7.59;73.67
21361;BME280;10839;43.206;23.550;2023-11-18T06:18:51;96516.75;;;7.45;73.47
21361;BME280;10839;43.206;23.550;2023-11-18T06:21:19;96518.94;;;7.00;76.94
21361;BME280;10839;43.206;23.550;2023-11-18T06:23:47;96513.81;;;7.61;75.41
21361;BME280;10839;43.206;23.550;2023-11-18T06:26:14;96527.69;;;7.93;74.37
21361;BME280;10839;43.206;23.550;2023-11-18T06:28:41;96531.03;;;7.52;76.25
21361;BME280;10839;43.206;23.550;2023-11-18T06:31:07;96526.44;;;7.46;77.49
21361;BME280;10839;43.206;23.550;2023-11-18T06:33:46;96525.91;;;7.78;76.38
21361;BME280;10839;43.206;23.550;2023-11-18T06:38:39;96531.50;;;7.20;76.69
21361;BME280;10839;43.206;23.550;2023-11-18T06:41:06;96525.72;;;7.59;72.94
21361;BME280;10839;43.206;23.550;2023-11-18T06:43:36;96537.13;;;7.67;72.23
21361;BME280;10839;43.206;23.550;2023-11-18T06:48:52;96538.41;;;7.50;70.94
21361;BME280;10839;43.206;23.550;2023-11-18T06:51:27;96537.38;;;7.72;69.96
21361;BME280;10839;43.206;23.550;2023-11-18T06:53:54;96529.00;;;7.54;69.49
21361;BME280;10839;43.206;23.550;2023-11-18T06:56:24;96538.00;;;7.11;70.51
21361;BME280;10839;43.206;23.550;2023-11-18T06:58:50;96498.91;;;7.52;67.24
21361;BME280;10839;43.206;23.550;2023-11-18T07:01:16;96512.66;;;7.70;67.17
21361;BME280;10839;43.206;23.550;2023-11-18T07:03:42;96515.75;;;7.46;68.14
21361;BME280;10839;43.206;23.550;2023-11-18T07:06:10;96524.91;;;7.58;67.25
21361;BME280;10839;43.206;23.550;2023-11-18T07:08:36;96525.69;;;8.01;66.87
21361;BME280;10839;43.206;23.550;2023-11-18T07:11:03;96546.56;;;7.85;65.92
21361;BME280;10839;43.206;23.550;2023-11-18T07:13:29;96542.75;;;7.51;67.42
21361;BME280;10839;43.206;23.550;2023-11-18T07:15:55;96526.53;;;8.02;65.00
21361;BME280;10839;43.206;23.550;2023-11-18T07:18:25;96529.75;;;8.46;63.31
21361;BME280;10839;43.206;23.550;2023-11-18T07:20:51;96525.91;;;7.78;63.46
21361;BME280;10839;43.206;23.550;2023-11-18T07:23:19;96519.00;;;7.91;64.62
21361;BME280;10839;43.206;23.550;2023-11-18T07:25:45;96530.75;;;8.17;63.54
21361;BME280;10839;43.206;23.550;2023-11-18T07:28:12;96528.28;;;8.16;62.52
21361;BME280;10839;43.206;23.550;2023-11-18T07:30:45;96536.19;;;7.75;64.76
21361;BME280;10839;43.206;23.550;2023-11-18T07:33:16;96522.03;;;8.09;63.34
21361;BME280;10839;43.206;23.550;2023-11-18T07:35:42;96513.47;;;8.20;62.21
21361;BME280;10839;43.206;23.550;2023-11-18T07:38:09;96528.19;;;8.03;63.27
21361;BME280;10839;43.206;23.550;2023-11-18T07:40:36;96517.75;;;7.87;63.54
21361;BME280;10839;43.206;23.550;2023-11-18T07:43:08;96529.66;;;8.33;63.22
21361;BME280;10839;43.206;23.550;2023-11-18T07:45:35;96518.56;;;8.36;62.32
21361;BME280;10839;43.206;23.550;2023-11-18T07:48:07;96540.22;;;8.13;62.29
21361;BME280;10839;43.206;23.550;2023-11-18T07:50:34;96532.25;;;7.99;63.39
21361;BME280;10839;43.206;23.550;2023-11-18T07:53:01;96527.31;;;8.51;61.14
21361;BME280;10839;43.206;23.550;2023-11-18T07:55:28;96531.63;;;8.52;60.89
21361;BME280;10839;43.206;23.550;2023-11-18T07:57:54;96539.94;;;8.29;61.97
21361;BME280;10839;43.206;23.550;2023-11-18T08:00:20;96531.84;;;8.23;63.13
21361;BME280;10839;43.206;23.550;2023-11-18T08:02:46;96544.50;;;8.35;61.17
21361;BME280;10839;43.206;23.550;2023-11-18T08:05:12;96544.34;;;8.16;60.17
21361;BME280;10839;43.206;23.550;2023-11-18T08:07:43;96552.69;;;7.78;61.56
21361;BME280;10839;43.206;23.550;2023-11-18T08:10:10;96561.31;;;7.95;62.98
21361;BME280;10839;43.206;23.550;2023-11-18T08:12:41;96585.56;;;8.15;61.63
21361;BME280;10839;43.206;23.550;2023-11-18T08:15:08;96556.44;;;7.84;61.61
21361;BME280;10839;43.206;23.550;2023-11-18T08:17:35;96574.22;;;7.49;63.31
21361;BME280;10839;43.206;23.550;2023-11-18T08:20:01;96579.34;;;7.87;62.07
21361;BME280;10839;43.206;23.550;2023-11-18T08:22:32;96568.44;;;7.88;60.36
21361;BME280;10839;43.206;23.550;2023-11-18T08:24:59;96582.91;;;7.51;63.14
21361;BME280;10839;43.206;23.550;2023-11-18T08:27:25;96593.63;;;7.51;63.77
21361;BME280;10839;43.206;23.550;2023-11-18T08:29:50;96595.09;;;7.75;63.62
21361;BME280;10839;43.206;23.550;2023-11-18T08:32:16;96591.91;;;7.86;63.03
21361;BME280;10839;43.206;23.550;2023-11-18T08:34:43;96618.78;;;7.21;64.37
21361;BME280;10839;43.206;23.550;2023-11-18T08:37:09;96623.47;;;7.69;62.99
21361;BME280;10839;43.206;23.550;2023-11-18T08:39:34;96610.13;;;7.97;63.03
21361;BME280;10839;43.206;23.550;2023-11-18T08:42:01;96626.13;;;7.48;63.49
21361;BME280;10839;43.206;23.550;2023-11-18T08:44:27;96623.06;;;7.72;64.08
21361;BME280;10839;43.206;23.550;2023-11-18T08:46:54;96633.41;;;8.18;61.66
21361;BME280;10839;43.206;23.550;2023-11-18T08:49:20;96624.38;;;7.76;62.92
21361;BME280;10839;43.206;23.550;2023-11-18T08:51:48;96630.41;;;7.28;63.83
21361;BME280;10839;43.206;23.550;2023-11-18T08:54:22;96626.13;;;7.91;62.34
21361;BME280;10839;43.206;23.550;2023-11-18T08:56:48;96618.75;;;7.93;61.80
21361;BME280;10839;43.206;23.550;2023-11-18T08:59:18;96618.94;;;7.34;63.07
21361;BME280;10839;43.206;23.550;2023-11-18T09:01:54;96614.84;;;7.74;62.48
21361;BME280;10839;43.206;23.550;2023-11-18T09:04:25;96616.00;;;8.07;60.63
21361;BME280;10839;43.206;23.550;2023-11-18T09:06:51;96623.84;;;7.66;61.68
21361;BME280;10839;43.206;23.550;2023-11-18T09:09:20;96623.97;;;7.58;62.15
21361;BME280;10839;43.206;23.550;2023-11-18T09:11:57;96621.41;;;8.14;60.48
21361;BME280;10839;43.206;23.550;2023-11-18T09:14:24;96620.78;;;7.91;61.68
21361;BME280;10839;43.206;23.550;2023-11-18T09:16:52;96636.06;;;7.54;63.01
21361;BME280;10839;43.206;23.550;2023-11-18T09:19:21;96628.69;;;8.20;61.39
21361;BME280;10839;43.206;23.550;2023-11-18T09:21:47;96606.19;;;8.63;59.90
21361;BME280;10839;43.206;23.550;2023-11-18T09:24:15;96611.44;;;8.50;60.53
21361;BME280;10839;43.206;23.550;2023-11-18T09:26:46;96627.09;;;8.25;61.45
21361;BME280;10839;43.206;23.550;2023-11-18T09:29:20;96629.00;;;8.80;59.34
21361;BME280;10839;43.206;23.550;2023-11-18T09:31:49;96625.19;;;8.68;59.15
21361;BME280;10839;43.206;23.550;2023-11-18T09:34:18;96619.75;;;8.13;60.04
21361;BME280;10839;43.206;23.550;2023-11-18T09:36:54;96620.94;;;8.52;60.30
21361;BME280;10839;43.206;23.550;2023-11-18T09:39:20;96619.66;;;9.10;58.26
21361;BME280;10839;43.206;23.550;2023-11-18T09:42:05;96619.59;;;8.63;59.00
21361;BME280;10839;43.206;23.550;2023-11-18T09:44:36;96612.13;;;8.10;60.49
21361;BME280;10839;43.206;23.550;2023-11-18T09:47:07;96619.34;;;8.58;58.82
21361;BME280;10839;43.206;23.550;2023-11-18T09:49:41;96613.81;;;9.00;58.20
21361;BME280;10839;43.206;23.550;2023-11-18T09:52:15;96615.28;;;8.20;60.52
21361;BME280;10839;43.206;23.550;2023-11-18T09:55:09;96629.72;;;7.76;61.80
21361;BME280;10839;43.206;23.550;2023-11-18T09:57:43;96629.09;;;8.17;60.35
21361;BME280;10839;43.206;23.550;2023-11-18T10:00:16;96639.97;;;8.15;60.12
21361;BME280;10839;43.206;23.550;2023-11-18T10:02:53;96625.88;;;7.64;62.65
21361;BME280;10839;43.206;23.550;2023-11-18T10:05:21;96635.00;;;7.34;63.42
21361;BME280;10839;43.206;23.550;2023-11-18T10:07:49;96630.72;;;7.54;62.82
21361;BME280;10839;43.206;23.550;2023-11-18T10:10:16;96642.59;;;7.88;61.72
21361;BME280;10839;43.206;23.550;2023-11-18T10:12:49;96664.66;;;7.54;63.21
21361;BME280;10839;43.206;23.550;2023-11-18T10:15:21;96660.50;;;7.01;64.23
21361;BME280;10839;43.206;23.550;2023-11-18T10:17:50;96649.31;;;7.62;63.15
21361;BME280;10839;43.206;23.550;2023-11-18T10:20:47;96661.84;;;7.41;63.34
21361;BME280;10839;43.206;23.550;2023-11-18T10:23:18;96637.25;;;6.87;65.33
21361;BME280;10839;43.206;23.550;2023-11-18T10:25:52;96656.78;;;7.31;64.30
21361;BME280;10839;43.206;23.550;2023-11-18T10:28:25;96640.19;;;7.57;63.63
21361;BME280;10839;43.206;23.550;2023-11-18T10:30:53;96656.78;;;7.31;65.01
21361;BME280;10839;43.206;23.550;2023-11-18T10:33:20;96649.31;;;7.27;64.48
21361;BME280;10839;43.206;23.550;2023-11-18T10:35:50;96638.13;;;7.95;62.40
21361;BME280;10839;43.206;23.550;2023-11-18T10:38:17;96612.00;;;7.40;63.55
21361;BME280;10839;43.206;23.550;2023-11-18T10:40:43;96628.78;;;6.98;64.22
21361;BME280;10839;43.206;23.550;2023-11-18T10:43:12;96637.78;;;7.26;64.53
21361;BME280;10839;43.206;23.550;2023-11-18T10:45:38;96640.28;;;7.63;62.88
21361;BME280;10839;43.206;23.550;2023-11-18T10:48:08;96644.06;;;7.19;64.37
21361;BME280;10839;43.206;23.550;2023-11-18T10:50:34;96641.13;;;6.99;64.80
21361;BME280;10839;43.206;23.550;2023-11-18T10:53:00;96625.34;;;7.54;63.12
21361;BME280;10839;43.206;23.550;2023-11-18T10:55:37;96637.09;;;7.53;62.92
21361;BME280;10839;43.206;23.550;2023-11-18T10:58:03;96620.28;;;7.09;64.27
21361;BME280;10839;43.206;23.550;2023-11-18T11:00:46;96611.31;;;7.52;63.68
21361;BME280;10839;43.206;23.550;2023-11-18T11:03:17;96608.03;;;7.93;61.32
21361;BME280;10839;43.206;23.550;2023-11-18T11:05:44;96601.00;;;7.49;63.24
21361;BME280;10839;43.206;23.550;2023-11-18T11:08:19;96589.41;;;7.85;62.15
21361;BME280;10839;43.206;23.550;2023-11-18T11:10:46;96600.88;;;8.21;60.53
21361;BME280;10839;43.206;23.550;2023-11-18T11:13:17;96592.34;;;7.90;61.95
21361;BME280;10839;43.206;23.550;2023-11-18T11:15:44;96588.91;;;7.74;62.91
21361;BME280;10839;43.206;23.550;2023-11-18T11:18:20;96580.28;;;8.49;61.25
21361;BME280;10839;43.206;23.550;2023-11-18T11:21:17;96577.59;;;8.00;61.29
21361;BME280;10839;43.206;23.550;2023-11-18T11:24:09;96577.25;;;7.61;62.06
21361;BME280;10839;43.206;23.550;2023-11-18T11:26:52;96589.88;;;8.37;61.02
21361;BME280;10839;43.206;23.550;2023-11-18T11:29:30;96587.22;;;8.16;60.65
21361;BME280;10839;43.206;23.550;2023-11-18T11:35:00;96578.41;;;8.43;60.78
21361;BME280;10839;43.206;23.550;2023-11-18T11:37:33;96585.41;;;8.44;60.42
21361;BME280;10839;43.206;23.550;2023-11-18T11:40:03;96582.38;;;8.26;60.69
21361;BME280;10839;43.206;23.550;2023-11-18T11:42:35;96583.41;;;8.25;60.28
21361;BME280;10839;43.206;23.550;2023-11-18T11:45:02;96593.47;;;8.23;60.48
21361;BME280;10839;43.206;23.550;2023-11-18T11:47:29;96580.16;;;8.08;61.05
21361;BME280;10839;43.206;23.550;2023-11-18T11:50:16;96590.16;;;7.78;61.77
21361;BME280;10839;43.206;23.550;2023-11-18T11:52:53;96605.63;;;8.74;60.06
21361;BME280;10839;43.206;23.550;2023-11-18T11:55:38;96608.13;;;8.48;60.29
21361;BME280;10839;43.206;23.550;2023-11-18T11:58:29;96612.63;;;7.99;62.02
21361;BME280;10839;43.206;23.550;2023-11-18T12:01:00;96620.09;;;8.52;60.77
21361;BME280;10839;43.206;23.550;2023-11-18T12:03:39;96613.59;;;8.61;60.11
21361;BME280;10839;43.206;23.550;2023-11-18T12:06:09;96625.91;;;8.07;62.13
21361;BME280;10839;43.206;23.550;2023-11-18T12:08:37;96629.84;;;7.90;62.95
21361;BME280;10839;43.206;23.550;2023-11-18T12:11:04;96631.78;;;8.17;61.04
21361;BME280;10839;43.206;23.550;2023-11-18T12:13:37;96624.97;;;8.42;60.75
21361;BME280;10839;43.206;23.550;2023-11-18T12:16:06;96640.03;;;7.79;63.17
21361;BME280;10839;43.206;23.550;2023-11-18T12:18:35;96636.59;;;7.64;64.03
21361;BME280;10839;43.206;23.550;2023-11-18T12:21:53;96643.50;;;8.37;62.14
21361;BME280;10839;43.206;23.550;2023-11-18T12:24:26;96651.53;;;8.16;62.65
21361;BME280;10839;43.206;23.550;2023-11-18T12:26:54;96648.53;;;7.47;64.97
21361;BME280;10839;43.206;23.550;2023-11-18T12:29:33;96648.97;;;8.08;64.30
21361;BME280;10839;43.206;23.550;2023-11-18T12:32:01;96646.94;;;8.31;62.65
21361;BME280;10839;43.206;23.550;2023-11-18T12:34:49;96659.13;;;7.91;63.55
21361;BME280;10839;43.206;23.550;2023-11-18T12:42:59;96652.09;;;8.11;63.49
21361;BME280;10839;43.206;23.550;2023-11-18T12:48:49;96641.41;;;7.90;64.38
21361;BME280;10839;43.206;23.550;2023-11-18T12:51:20;96645.06;;;8.25;63.45
21361;BME280;10839;43.206;23.550;2023-11-18T12:53:48;96660.25;;;7.46;66.04
21361;BME280;10839;43.206;23.550;2023-11-18T12:56:21;96667.66;;;7.44;67.44
21361;BME280;10839;43.206;23.550;2023-11-18T12:58:51;96663.75;;;7.82;65.31
21361;BME280;10839;43.206;23.550;2023-11-18T13:01:16;96662.00;;;7.90;65.16
21361;BME280;10839;43.206;23.550;2023-11-18T13:03:44;96661.22;;;7.24;66.74
21361;BME280;10839;43.206;23.550;2023-11-18T13:06:13;96676.44;;;7.24;67.36
21361;BME280;10839;43.206;23.550;2023-11-18T13:08:43;96660.72;;;7.50;66.29
21361;BME280;10839;43.206;23.550;2023-11-18T13:11:09;96679.28;;;7.22;67.39
21361;BME280;10839;43.206;23.550;2023-11-18T13:13:45;96666.41;;;7.11;68.62
21361;BME280;10839;43.206;23.550;2023-11-18T13:16:12;96683.97;;;7.49;67.89
21361;BME280;10839;43.206;23.550;2023-11-18T13:18:47;96670.28;;;7.23;67.82
21361;BME280;10839;43.206;23.550;2023-11-18T13:21:18;96658.72;;;6.79;69.41
21361;BME280;10839;43.206;23.550;2023-11-18T13:23:52;96668.19;;;7.54;67.43
21361;BME280;10839;43.206;23.550;2023-11-18T13:26:19;96685.81;;;7.49;66.98
21361;BME280;10839;43.206;23.550;2023-11-18T13:28:47;96659.66;;;7.01;68.67